Time;durP1;ratioP1;P1;durP2;ratioP2;P2;SDS_P1;SDS_P2;PMS_P1;PMS_P2;Temp;Humidity;BMP_temperature;BMP_pressure;BME280_temperature;BME280_humidity;BME280_pressure;Samples;Min_cycle;Max_cycle;Signal;HPM_P1;HPM_P2
2022/05/18 00:02:23;;;;;;;2.92;1.30;;;;;;;;;;5095763;28;20137;-75
2022/05/18 00:04:48;;;;;;;1.85;1.30;;;;;;;;;;5110788;28;20024;-75
2022/05/18 00:07:14;;;;;;;1.65;1.27;;;;;;;;;;5095617;28;20446;-77
2022/05/18 00:09:39;;;;;;;2.20;1.55;;;;;;;;;;5095107;28;20042;-76
2022/05/18 00:12:05;;;;;;;2.03;1.20;;;;;;;;;;5095140;28;20035;-75
2022/05/18 00:14:31;;;;;;;1.88;1.60;;;;;;;;;;5094864;28;20345;-79
2022/05/18 00:17:03;;;;;;;1.67;1.58;;;;;;;;;;5093711;28;20162;-81
2022/05/18 00:19:32;;;;;;;3.58;1.30;;;;;;;;;;5094913;28;20043;-85
2022/05/18 00:21:57;;;;;;;2.85;1.55;;;;;;;;;;5094036;28;20469;-81
2022/05/18 00:27:26;;;;;;;1.98;1.20;;;;;;;;;;5095046;28;20032;-83
2022/05/18 00:29:51;;;;;;;2.00;1.10;;;;;;;;;;5095033;28;20035;-81
2022/05/18 00:32:18;;;;;;;4.57;1.40;;;;;;;;;;5094429;28;20032;-78
2022/05/18 00:34:44;;;;;;;1.40;1.30;;;;;;;;;;5094719;28;20028;-80
2022/05/18 00:37:09;;;;;;;3.25;1.42;;;;;;;;;;5094567;28;20032;-79
2022/05/18 00:39:42;;;;;;;2.90;1.37;;;;;;;;;;5094306;28;20024;-79
2022/05/18 00:42:30;;;;;;;3.05;1.30;;;;;;;;;;5094519;28;20331;-79
2022/05/18 00:44:56;;;;;;;4.18;1.40;;;;;;;;;;5094813;28;20024;-79
2022/05/18 00:47:21;;;;;;;1.45;1.30;;;;;;;;;;5093773;28;20027;-80
2022/05/18 00:49:52;;;;;;;2.63;1.30;;;;;;;;;;5094110;28;20106;-79
2022/05/18 00:52:19;;;;;;;1.85;1.35;;;;;;;;;;5094623;28;20028;-80
2022/05/18 00:54:44;;;;;;;1.48;1.30;;;;;;;;;;5094128;28;20363;-80
2022/05/18 01:00:15;;;;;;;2.13;1.58;;;;;;;;;;5094054;28;20470;-79
2022/05/18 01:02:43;;;;;;;3.72;1.60;;;;;;;;;;5094310;28;20044;-80
2022/05/18 01:05:30;;;;;;;2.00;1.23;;;;;;;;;;5093901;28;20028;-79
2022/05/18 01:07:58;;;;;;;1.38;1.27;;;;;;;;;;5094451;28;20035;-78
2022/05/18 01:10:24;;;;;;;3.28;1.40;;;;;;;;;;5109628;28;20385;-78
2022/05/18 01:12:49;;;;;;;2.25;1.33;;;;;;;;;;5094081;28;20093;-77
2022/05/18 01:15:16;;;;;;;2.00;1.70;;;;;;;;;;5094425;28;20020;-80
2022/05/18 01:17:43;;;;;;;2.72;1.30;;;;;;;;;;5092315;28;20052;-82
2022/05/18 01:23:19;;;;;;;5.40;1.50;;;;;;;;;;5094301;28;20032;-82
2022/05/18 01:25:47;;;;;;;4.05;1.35;;;;;;;;;;5094061;28;20028;-83
2022/05/18 01:31:58;;;;;;;3.13;1.58;;;;;;;;;;5094494;28;20478;-84
2022/05/18 01:37:26;;;;;;;3.63;1.50;;;;;;;;;;5094060;28;20036;-85
2022/05/18 01:43:03;;;;;;;7.25;1.50;;;;;;;;;;5094070;28;20039;-81
2022/05/18 01:45:29;;;;;;;3.55;1.63;;;;;;;;;;5109318;28;20020;-83
2022/05/18 01:50:58;;;;;;;4.18;1.50;;;;;;;;;;5094029;28;20047;-80
2022/05/18 01:53:24;;;;;;;2.40;1.38;;;;;;;;;;5093770;28;20020;-79
2022/05/18 01:58:52;;;;;;;2.10;1.70;;;;;;;;;;5109675;28;20039;-78
2022/05/18 02:01:20;;;;;;;1.75;1.50;;;;;;;;;;5097501;28;20031;-78
2022/05/18 02:03:47;;;;;;;3.10;1.75;;;;;;;;;;5113245;28;20034;-78
2022/05/18 02:06:21;;;;;;;5.30;1.70;;;;;;;;;;5097578;28;20024;-77
2022/05/18 02:08:46;;;;;;;2.00;1.63;;;;;;;;;;5097654;28;20381;-76
2022/05/18 02:14:02;;;;;;;4.55;1.52;;;;;;;;;;5097393;28;20359;-84
2022/05/18 02:19:31;;;;;;;5.28;1.60;;;;;;;;;;5096798;28;20072;-80
2022/05/18 02:21:56;;;;;;;2.17;1.67;;;;;;;;;;5097492;28;20058;-80
2022/05/18 02:27:25;;;;;;;1.88;1.75;;;;;;;;;;5097385;28;20040;-78
2022/05/18 02:32:53;;;;;;;4.00;1.60;;;;;;;;;;5097283;28;20039;-81
2022/05/18 02:35:19;;;;;;;4.97;1.47;;;;;;;;;;5096691;28;20028;-81
2022/05/18 02:40:47;;;;;;;4.43;1.42;;;;;;;;;;5097111;28;20028;-81
2022/05/18 02:43:13;;;;;;;2.63;1.50;;;;;;;;;;5095330;28;20020;-80
2022/05/18 02:48:42;;;;;;;1.45;1.33;;;;;;;;;;5096970;28;20036;-81
2022/05/18 02:51:08;;;;;;;3.30;1.48;;;;;;;;;;5096744;28;20028;-79
2022/05/18 02:56:05;;;;;;;4.72;1.63;;;;;;;;;;5095422;28;20054;-80
2022/05/18 02:56:50;;;;;;;2.05;1.27;;;;;;;;;;5096915;28;20032;-75
2022/05/18 02:59:16;;;;;;;2.53;1.37;;;;;;;;;;5096962;28;20016;-75
2022/05/18 03:01:41;;;;;;;2.70;1.48;;;;;;;;;;5096450;28;20262;-76
2022/05/18 03:04:17;;;;;;;2.03;1.53;;;;;;;;;;5112128;28;20024;-76
2022/05/18 03:06:42;;;;;;;2.97;1.42;;;;;;;;;;5112204;28;20327;-76
2022/05/18 03:09:07;;;;;;;2.10;1.43;;;;;;;;;;5096324;28;20024;-77
2022/05/18 03:11:46;;;;;;;2.00;1.55;;;;;;;;;;5095879;28;20274;-77
2022/05/18 03:14:11;;;;;;;1.70;1.60;;;;;;;;;;5096304;28;20381;-77
2022/05/18 03:19:40;;;;;;;4.35;1.70;;;;;;;;;;5056636;28;20037;-81
2022/05/18 03:24:51;;;;;;;2.42;1.20;;;;;;;;;;5055832;28;20033;-81
2022/05/18 03:27:17;;;;;;;1.77;1.30;;;;;;;;;;5054576;28;20028;-80
2022/05/18 03:32:50;;;;;;;1.65;1.50;;;;;;;;;;5055923;28;20056;-76
2022/05/18 03:35:16;;;;;;;2.40;1.70;;;;;;;;;;5055918;28;20060;-75
2022/05/18 03:37:41;;;;;;;4.22;1.33;;;;;;;;;;5055280;28;20025;-77
2022/05/18 03:40:07;;;;;;;2.70;1.50;;;;;;;;;;5055221;28;20028;-75
2022/05/18 03:42:33;;;;;;;2.28;1.30;;;;;;;;;;5055524;28;20116;-79
2022/05/18 03:45:08;;;;;;;3.25;1.52;;;;;;;;;;5055181;28;20013;-81
2022/05/18 03:47:33;;;;;;;2.60;1.10;;;;;;;;;;5055406;28;20098;-74
2022/05/18 03:53:02;;;;;;;1.67;1.48;;;;;;;;;;5055261;28;20255;-80
2022/05/18 03:55:27;;;;;;;1.60;1.27;;;;;;;;;;5055200;28;20032;-81
2022/05/18 04:01:02;;;;;;;2.55;1.33;;;;;;;;;;5055532;28;20032;-81
2022/05/18 04:03:29;;;;;;;3.00;1.42;;;;;;;;;;5055112;28;20028;-79
2022/05/18 04:06:19;;;;;;;1.58;1.20;;;;;;;;;;5054818;28;20099;-78
2022/05/18 04:08:44;;;;;;;2.55;1.30;;;;;;;;;;5070780;28;20033;-79
2022/05/18 04:11:10;;;;;;;3.80;1.58;;;;;;;;;;5054945;28;20028;-79
2022/05/18 04:13:42;;;;;;;2.45;1.20;;;;;;;;;;5054591;28;20021;-79
2022/05/18 04:16:08;;;;;;;1.10;1.00;;;;;;;;;;5054690;28;20045;-79
2022/05/18 04:18:34;;;;;;;1.60;1.25;;;;;;;;;;5074794;28;20044;-77
2022/05/18 04:21:11;;;;;;;1.40;1.30;;;;;;;;;;5094500;28;20031;-76
2022/05/18 04:23:38;;;;;;;1.88;1.30;;;;;;;;;;5093535;28;20458;-80
2022/05/18 04:26:03;;;;;;;1.70;1.30;;;;;;;;;;5093735;28;20059;-80
2022/05/18 04:28:44;;;;;;;1.35;1.20;;;;;;;;;;5094792;28;20419;-80
2022/05/18 04:31:09;;;;;;;6.20;1.27;;;;;;;;;;5094541;28;20020;-80
2022/05/18 04:33:56;;;;;;;3.20;1.30;;;;;;;;;;5094714;28;20035;-82
2022/05/18 04:36:22;;;;;;;1.67;1.17;;;;;;;;;;5094737;28;20288;-82
2022/05/18 04:38:56;;;;;;;2.00;1.20;;;;;;;;;;5094311;28;20451;-82
2022/05/18 04:41:22;;;;;;;5.00;1.40;;;;;;;;;;5094490;28;20028;-80
2022/05/18 04:44:13;;;;;;;3.75;1.33;;;;;;;;;;5093739;28;20085;-79
2022/05/18 04:46:40;;;;;;;2.67;1.40;;;;;;;;;;5094770;28;20382;-79
2022/05/18 04:49:08;;;;;;;1.45;1.17;;;;;;;;;;5094600;28;20103;-78
2022/05/18 04:51:33;;;;;;;2.60;1.30;;;;;;;;;;5094622;28;20042;-79
2022/05/18 04:54:07;;;;;;;4.57;1.50;;;;;;;;;;5094080;28;20099;-79
2022/05/18 04:56:32;;;;;;;5.75;1.40;;;;;;;;;;5094616;28;20331;-79
2022/05/18 04:59:13;;;;;;;3.72;1.63;;;;;;;;;;5094646;28;20020;-79
2022/05/18 05:01:39;;;;;;;2.25;1.13;;;;;;;;;;5093235;28;20028;-79
2022/05/18 05:04:14;;;;;;;2.63;1.17;;;;;;;;;;5094521;28;20026;-79
2022/05/18 05:06:40;;;;;;;1.85;1.63;;;;;;;;;;5092917;28;20036;-79
2022/05/18 05:09:06;;;;;;;3.63;1.80;;;;;;;;;;5092734;28;20024;-78
2022/05/18 05:11:31;;;;;;;2.88;1.02;;;;;;;;;;5091574;28;20035;-78
2022/05/18 05:13:56;;;;;;;1.27;1.20;;;;;;;;;;5092692;28;20020;-79
2022/05/18 05:16:22;;;;;;;3.42;1.30;;;;;;;;;;5092572;28;20032;-79
2022/05/18 05:18:47;;;;;;;1.98;1.38;;;;;;;;;;5092737;28;20105;-79
2022/05/18 05:21:13;;;;;;;2.35;1.27;;;;;;;;;;5092648;28;20519;-79
2022/05/18 05:23:38;;;;;;;1.35;1.13;;;;;;;;;;5108363;28;20047;-79
2022/05/18 05:26:03;;;;;;;1.30;1.20;;;;;;;;;;5092615;28;20112;-79
2022/05/18 05:28:29;;;;;;;4.78;1.20;;;;;;;;;;5092638;28;20027;-79
2022/05/18 05:30:54;;;;;;;2.45;1.10;;;;;;;;;;5092606;28;20028;-70
2022/05/18 05:33:20;;;;;;;1.65;1.00;;;;;;;;;;5094010;28;20081;-73
2022/05/18 05:35:45;;;;;;;2.53;1.25;;;;;;;;;;5096721;28;20389;-71
2022/05/18 05:38:11;;;;;;;2.72;1.05;;;;;;;;;;5096631;28;20066;-72
2022/05/18 05:40:37;;;;;;;8.77;1.25;;;;;;;;;;5096556;28;20072;-72
2022/05/18 05:43:06;;;;;;;1.13;0.95;;;;;;;;;;5096900;28;20012;-71
2022/05/18 05:45:32;;;;;;;2.72;1.10;;;;;;;;;;5096512;28;20035;-72
2022/05/18 05:47:58;;;;;;;2.80;1.00;;;;;;;;;;5096494;28;20016;-71
2022/05/18 05:50:24;;;;;;;1.90;0.90;;;;;;;;;;5096478;28;20032;-72
2022/05/18 05:52:50;;;;;;;2.72;0.90;;;;;;;;;;5096394;28;20038;-72
2022/05/18 05:55:15;;;;;;;2.13;1.10;;;;;;;;;;5096319;28;20132;-72
2022/05/18 05:57:40;;;;;;;2.88;1.40;;;;;;;;;;5096221;28;20355;-72
2022/05/18 06:00:07;;;;;;;0.98;0.85;;;;;;;;;;5096175;28;20039;-72
2022/05/18 06:02:37;;;;;;;1.88;1.00;;;;;;;;;;5096532;28;20362;-72
2022/05/18 06:05:03;;;;;;;2.00;0.85;;;;;;;;;;5096144;28;20035;-72
2022/05/18 06:07:28;;;;;;;4.50;1.02;;;;;;;;;;5096127;28;20027;-71
2022/05/18 06:09:54;;;;;;;3.95;1.10;;;;;;;;;;5096126;28;20028;-72
2022/05/18 06:12:20;;;;;;;1.05;0.93;;;;;;;;;;5111763;28;20461;-71
2022/05/18 06:14:45;;;;;;;1.05;0.60;;;;;;;;;;5095854;28;20040;-74
2022/05/18 06:17:10;;;;;;;2.05;1.00;;;;;;;;;;5096184;28;20057;-73
2022/05/18 06:19:36;;;;;;;1.15;0.75;;;;;;;;;;5096828;28;20036;-73
2022/05/18 06:22:01;;;;;;;1.27;0.75;;;;;;;;;;5096949;28;20359;-74
2022/05/18 06:24:27;;;;;;;1.48;0.80;;;;;;;;;;5096928;28;20097;-74
2022/05/18 06:26:55;;;;;;;1.15;0.90;;;;;;;;;;5095724;28;20020;-74
2022/05/18 06:29:21;;;;;;;2.50;0.77;;;;;;;;;;5096951;28;20032;-74
2022/05/18 06:31:46;;;;;;;0.82;0.68;;;;;;;;;;5097400;28;20486;-74
2022/05/18 06:34:11;;;;;;;1.08;0.88;;;;;;;;;;5097179;28;20070;-74
2022/05/18 06:36:37;;;;;;;1.80;0.73;;;;;;;;;;5097366;28;20028;-74
2022/05/18 06:39:02;;;;;;;2.58;1.10;;;;;;;;;;5097016;28;20024;-74
2022/05/18 06:41:28;;;;;;;0.80;0.70;;;;;;;;;;5096771;28;20109;-74
2022/05/18 06:43:55;;;;;;;1.90;1.10;;;;;;;;;;5112224;28;20032;-74
2022/05/18 06:46:21;;;;;;;1.40;0.80;;;;;;;;;;5095781;28;20054;-74
2022/05/18 06:48:47;;;;;;;1.35;0.80;;;;;;;;;;5096394;28;20077;-74
2022/05/18 06:51:13;;;;;;;2.58;0.75;;;;;;;;;;5112219;28;20012;-73
2022/05/18 06:53:39;;;;;;;0.80;0.73;;;;;;;;;;5096353;28;20027;-74
2022/05/18 06:56:04;;;;;;;0.82;0.80;;;;;;;;;;5096349;28;20517;-74
2022/05/18 06:58:30;;;;;;;0.60;0.60;;;;;;;;;;5096294;28;20028;-74
2022/05/18 07:00:55;;;;;;;1.08;0.70;;;;;;;;;;5096208;28;20453;-74
2022/05/18 07:03:20;;;;;;;0.93;0.73;;;;;;;;;;5096309;28;20467;-74
2022/05/18 07:05:46;;;;;;;1.50;0.67;;;;;;;;;;5096110;28;20043;-74
2022/05/18 07:08:11;;;;;;;1.35;0.60;;;;;;;;;;5096028;28;20736;-74
2022/05/18 07:10:36;;;;;;;2.65;0.80;;;;;;;;;;5096073;28;20016;-74
2022/05/18 07:13:02;;;;;;;2.05;0.68;;;;;;;;;;5094823;28;20542;-73
2022/05/18 07:15:28;;;;;;;1.58;0.70;;;;;;;;;;5095920;28;20016;-74
2022/05/18 07:17:53;;;;;;;0.93;0.70;;;;;;;;;;5077443;28;20068;-74
2022/05/18 07:20:19;;;;;;;2.22;1.00;;;;;;;;;;5095939;28;20027;-73
2022/05/18 07:22:44;;;;;;;1.03;0.50;;;;;;;;;;5095832;28;20016;-73
2022/05/18 07:25:10;;;;;;;0.70;0.70;;;;;;;;;;5095767;28;20266;-74
2022/05/18 07:27:35;;;;;;;1.70;0.70;;;;;;;;;;5095762;28;20020;-74
2022/05/18 07:30:02;;;;;;;0.85;0.73;;;;;;;;;;5095624;28;20036;-74
2022/05/18 07:32:28;;;;;;;1.33;0.60;;;;;;;;;;5095670;28;20024;-73
2022/05/18 07:34:53;;;;;;;2.40;0.70;;;;;;;;;;5094409;28;20558;-74
2022/05/18 07:37:19;;;;;;;0.93;0.60;;;;;;;;;;5095408;28;20090;-74
2022/05/18 07:39:44;;;;;;;0.60;0.60;;;;;;;;;;5095452;28;20605;-74
2022/05/18 07:42:09;;;;;;;0.88;0.70;;;;;;;;;;5095404;28;20016;-74
2022/05/18 07:44:35;;;;;;;1.55;0.70;;;;;;;;;;5095369;28;20398;-74
2022/05/18 07:47:02;;;;;;;2.55;0.70;;;;;;;;;;5095368;28;20016;-74
2022/05/18 07:49:32;;;;;;;0.60;0.50;;;;;;;;;;5095250;28;20028;-73
2022/05/18 07:51:58;;;;;;;2.55;0.60;;;;;;;;;;5095278;28;20111;-74
2022/05/18 07:54:23;;;;;;;0.60;0.60;;;;;;;;;;5095181;28;20059;-74
2022/05/18 07:56:48;;;;;;;1.67;0.63;;;;;;;;;;5093973;28;20032;-74
2022/05/18 07:59:14;;;;;;;1.40;0.80;;;;;;;;;;5095120;28;20028;-74
2022/05/18 08:01:39;;;;;;;1.00;0.50;;;;;;;;;;5095022;28;20024;-74
2022/05/18 08:04:05;;;;;;;1.70;1.02;;;;;;;;;;5110774;28;20378;-74
2022/05/18 08:06:30;;;;;;;1.80;0.77;;;;;;;;;;5094980;28;20056;-74
2022/05/18 08:08:56;;;;;;;1.85;0.60;;;;;;;;;;5094834;28;20050;-74
2022/05/18 08:16:50;;;;;;;2.25;0.70;;;;;;;;;;5094704;28;20039;-74
2022/05/18 08:19:16;;;;;;;0.65;0.60;;;;;;;;;;5094640;28;20490;-74
2022/05/18 08:21:41;;;;;;;0.85;0.52;;;;;;;;;;5094667;28;20102;-74
2022/05/18 08:24:08;;;;;;;1.50;1.00;;;;;;;;;;5110325;28;20362;-75
2022/05/18 08:26:33;;;;;;;1.58;0.57;;;;;;;;;;5094733;28;20382;-74
2022/05/18 08:28:59;;;;;;;0.57;0.55;;;;;;;;;;5094567;28;20026;-74
2022/05/18 08:31:25;;;;;;;1.85;0.60;;;;;;;;;;5094568;28;20416;-74
2022/05/18 08:33:50;;;;;;;2.50;0.60;;;;;;;;;;5094457;28;20023;-75
2022/05/18 08:36:18;;;;;;;0.70;0.70;;;;;;;;;;5094493;28;20068;-74
2022/05/18 08:38:43;;;;;;;1.30;0.60;;;;;;;;;;5094385;28;20027;-74
2022/05/18 08:41:12;;;;;;;1.17;0.60;;;;;;;;;;5094295;28;20040;-74
2022/05/18 08:43:39;;;;;;;2.05;0.88;;;;;;;;;;5094432;28;20069;-74
2022/05/18 08:46:13;;;;;;;2.90;0.90;;;;;;;;;;5094332;28;20063;-74
2022/05/18 08:48:52;;;;;;;0.73;0.70;;;;;;;;;;5094219;28;20062;-74
2022/05/18 08:51:20;;;;;;;2.05;0.60;;;;;;;;;;5094367;28;20032;-74
2022/05/18 08:54:00;;;;;;;2.05;0.55;;;;;;;;;;5094210;28;20063;-74
2022/05/18 08:56:28;;;;;;;0.57;0.50;;;;;;;;;;5094028;28;20370;-74
2022/05/18 08:58:54;;;;;;;1.63;0.60;;;;;;;;;;5092881;28;20419;-74
2022/05/18 09:01:21;;;;;;;2.58;0.80;;;;;;;;;;5094004;28;20067;-74
2022/05/18 09:03:58;;;;;;;0.70;0.70;;;;;;;;;;5093941;28;20020;-74
2022/05/18 09:06:28;;;;;;;3.03;0.80;;;;;;;;;;5093943;28;20031;-74
2022/05/18 09:11:46;;;;;;;2.40;0.73;;;;;;;;;;5093980;28;20509;-74
2022/05/18 09:14:13;;;;;;;0.80;0.80;;;;;;;;;;5093983;28;20055;-74
2022/05/18 09:16:44;;;;;;;1.35;0.57;;;;;;;;;;5091797;28;20048;-74
2022/05/18 09:19:11;;;;;;;1.20;0.70;;;;;;;;;;5093690;28;20387;-75
2022/05/18 09:21:55;;;;;;;1.35;0.60;;;;;;;;;;5093807;28;20104;-75
2022/05/18 09:24:27;;;;;;;1.85;0.47;;;;;;;;;;5093733;28;20031;-74
2022/05/18 09:26:58;;;;;;;2.05;0.50;;;;;;;;;;5093738;28;20481;-74
2022/05/18 09:29:43;;;;;;;0.80;0.50;;;;;;;;;;5093706;28;20111;-74
2022/05/18 09:32:09;;;;;;;2.10;0.50;;;;;;;;;;5075866;28;20043;-75
2022/05/18 09:34:52;;;;;;;0.88;0.70;;;;;;;;;;5093806;28;20032;-74
2022/05/18 09:37:25;;;;;;;1.15;0.55;;;;;;;;;;5093635;28;20028;-74
2022/05/18 09:40:03;;;;;;;0.40;0.40;;;;;;;;;;5075476;28;20020;-74
2022/05/18 09:42:32;;;;;;;0.80;0.50;;;;;;;;;;5093563;28;20176;-74
2022/05/18 09:45:10;;;;;;;1.42;0.45;;;;;;;;;;5093602;28;20020;-74
2022/05/18 09:47:43;;;;;;;1.88;0.70;;;;;;;;;;5093510;28;20394;-74
2022/05/18 09:50:09;;;;;;;1.15;0.70;;;;;;;;;;5093507;28;20027;-74
2022/05/18 09:52:37;;;;;;;0.90;0.40;;;;;;;;;;5093474;28;20102;-74
2022/05/18 09:55:04;;;;;;;0.70;0.57;;;;;;;;;;5093410;28;20040;-74
2022/05/18 09:57:35;;;;;;;0.85;0.75;;;;;;;;;;5093304;28;20103;-74
2022/05/18 10:00:05;;;;;;;0.80;0.40;;;;;;;;;;5093417;28;20085;-75
2022/05/18 10:08:19;;;;;;;2.78;0.60;;;;;;;;;;5093333;28;20177;-74
2022/05/18 10:10:45;;;;;;;2.22;0.63;;;;;;;;;;5093289;28;20039;-75
2022/05/18 10:13:12;;;;;;;2.95;0.60;;;;;;;;;;5093255;28;20020;-75
2022/05/18 10:15:38;;;;;;;1.42;0.60;;;;;;;;;;5093097;28;20032;-74
2022/05/18 10:18:12;;;;;;;1.27;0.70;;;;;;;;;;5093200;28;20032;-74
2022/05/18 10:20:40;;;;;;;1.05;0.65;;;;;;;;;;5094973;28;20027;-74
2022/05/18 10:23:23;;;;;;;0.73;0.50;;;;;;;;;;5096950;28;20481;-74
2022/05/18 10:25:49;;;;;;;0.57;0.57;;;;;;;;;;5096889;28;20089;-75
2022/05/18 10:28:19;;;;;;;0.50;0.50;;;;;;;;;;5096903;28;20027;-74
2022/05/18 10:30:53;;;;;;;1.85;0.40;;;;;;;;;;5096851;28;20036;-74
2022/05/18 10:33:20;;;;;;;0.68;0.50;;;;;;;;;;5096790;28;20082;-74
2022/05/18 10:35:47;;;;;;;0.57;0.40;;;;;;;;;;5096766;28;20027;-74
2022/05/18 10:38:17;;;;;;;1.35;0.40;;;;;;;;;;5096626;28;20036;-74
2022/05/18 10:40:43;;;;;;;0.52;0.52;;;;;;;;;;5096929;28;20115;-74
2022/05/18 10:43:20;;;;;;;2.83;0.60;;;;;;;;;;5096580;28;20052;-74
2022/05/18 10:45:53;;;;;;;0.55;0.40;;;;;;;;;;5096592;28;20067;-74
2022/05/18 10:48:20;;;;;;;0.63;0.63;;;;;;;;;;5096451;28;20028;-74
2022/05/18 10:50:46;;;;;;;0.50;0.43;;;;;;;;;;5096515;28;20389;-74
2022/05/18 10:53:15;;;;;;;1.38;0.60;;;;;;;;;;5096388;28;20028;-74
2022/05/18 10:55:54;;;;;;;1.95;0.60;;;;;;;;;;5096431;28;20020;-74
2022/05/18 10:58:24;;;;;;;2.85;0.75;;;;;;;;;;5096285;28;20035;-74
2022/05/18 11:01:01;;;;;;;1.17;0.93;;;;;;;;;;5078131;28;20390;-74
2022/05/18 11:03:28;;;;;;;0.40;0.40;;;;;;;;;;5096178;28;20039;-74
2022/05/18 11:06:12;;;;;;;0.47;0.40;;;;;;;;;;5096163;28;20020;-74
2022/05/18 11:08:37;;;;;;;0.77;0.40;;;;;;;;;;5096029;28;20024;-74
2022/05/18 11:11:21;;;;;;;1.65;0.50;;;;;;;;;;5096029;28;20019;-74
2022/05/18 11:13:50;;;;;;;0.68;0.50;;;;;;;;;;5095760;28;20375;-74
2022/05/18 11:16:22;;;;;;;0.90;0.57;;;;;;;;;;5095947;28;20497;-74
2022/05/18 11:18:53;;;;;;;0.50;0.50;;;;;;;;;;5077993;28;20040;-74
2022/05/18 11:21:27;;;;;;;0.93;0.50;;;;;;;;;;5095903;28;20024;-74
2022/05/18 11:24:14;;;;;;;0.40;0.40;;;;;;;;;;5095836;28;20031;-74
2022/05/18 11:26:47;;;;;;;0.38;0.38;;;;;;;;;;5095866;28;20028;-74
2022/05/18 11:29:32;;;;;;;3.03;0.47;;;;;;;;;;5077919;28;20048;-74
2022/05/18 11:31:58;;;;;;;0.30;0.30;;;;;;;;;;5095399;28;20042;-74
2022/05/18 11:34:35;;;;;;;0.63;0.50;;;;;;;;;;5095638;28;20446;-74
2022/05/18 11:37:21;;;;;;;0.85;0.63;;;;;;;;;;5095427;28;20290;-73
2022/05/18 11:39:46;;;;;;;0.43;0.43;;;;;;;;;;5066707;28;20047;-74
2022/05/18 11:42:19;;;;;;;0.97;0.37;;;;;;;;;;5077405;28;20020;-74
2022/05/18 11:44:53;;;;;;;0.50;0.50;;;;;;;;;;5095383;28;20258;-73
2022/05/18 11:47:25;;;;;;;0.70;0.60;;;;;;;;;;5095906;28;20055;-74
2022/05/18 11:50:08;;;;;;;1.55;0.40;;;;;;;;;;5095296;28;20039;-74
2022/05/18 11:52:49;;;;;;;0.45;0.45;;;;;;;;;;5095452;28;20028;-73
2022/05/18 11:55:20;;;;;;;0.50;0.50;;;;;;;;;;5095262;28;20061;-74
2022/05/18 11:57:50;;;;;;;0.52;0.40;;;;;;;;;;5094919;28;20028;-74
2022/05/18 12:03:16;;;;;;;0.50;0.50;;;;;;;;;;5093925;28;20111;-72
2022/05/18 12:05:56;;;;;;;2.08;0.60;;;;;;;;;;5093897;28;20085;-72
2022/05/18 12:08:26;;;;;;;;;;;;;;;;;;5094250;28;20093;-71
2022/05/18 12:11:12;;;;;;;0.75;0.30;;;;;;;;;;5093833;28;19904;-72
2022/05/18 12:13:44;;;;;;;0.70;0.60;;;;;;;;;;5093695;28;20035;-72
2022/05/18 12:16:09;;;;;;;0.40;0.40;;;;;;;;;;5093562;28;20052;-72
2022/05/18 12:18:58;;;;;;;1.38;0.55;;;;;;;;;;5093662;28;20046;-72
2022/05/18 12:21:41;;;;;;;0.68;0.50;;;;;;;;;;5093209;28;20031;-72
2022/05/18 12:24:07;;;;;;;0.57;0.57;;;;;;;;;;5093554;28;20059;-72
2022/05/18 12:26:34;;;;;;;0.73;0.52;;;;;;;;;;5075264;28;20016;-72
2022/05/18 12:29:00;;;;;;;1.38;0.47;;;;;;;;;;5093520;28;20040;-71
2022/05/18 12:31:26;;;;;;;0.50;0.50;;;;;;;;;;5093422;28;20027;-72
2022/05/18 12:34:01;;;;;;;0.60;0.60;;;;;;;;;;5093393;28;20119;-72
2022/05/18 12:36:40;;;;;;;0.82;0.50;;;;;;;;;;5093347;28;20028;-72
2022/05/18 12:39:11;;;;;;;0.73;0.70;;;;;;;;;;5093417;28;20356;-72
2022/05/18 12:41:41;;;;;;;0.60;0.50;;;;;;;;;;5093224;28;20055;-72
2022/05/18 12:44:09;;;;;;;1.65;0.50;;;;;;;;;;5092564;28;20020;-72
2022/05/18 12:46:45;;;;;;;2.17;0.73;;;;;;;;;;5093128;28;20069;-71
2022/05/18 12:49:16;;;;;;;0.50;0.50;;;;;;;;;;5093113;28;20028;-72
2022/05/18 12:51:41;;;;;;;;;;;;;;;;;;5093589;28;20020;-71
2022/05/18 12:54:09;;;;;;;2.15;0.43;;;;;;;;;;5093140;28;20381;-72
2022/05/18 12:56:34;;;;;;;0.30;0.30;;;;;;;;;;5093057;28;20024;-72
2022/05/18 12:59:00;;;;;;;0.40;0.40;;;;;;;;;;5092871;28;20023;-72
2022/05/18 13:01:28;;;;;;;0.50;0.50;;;;;;;;;;5092976;28;20036;-72
2022/05/18 13:03:57;;;;;;;0.60;0.60;;;;;;;;;;5092713;28;20043;-64
2022/05/18 13:06:29;;;;;;;0.60;0.60;;;;;;;;;;5092904;28;20107;-73
2022/05/18 13:08:55;;;;;;;1.88;0.70;;;;;;;;;;5092835;28;20020;-73
2022/05/18 13:11:20;;;;;;;0.40;0.40;;;;;;;;;;5092804;28;20023;-73
2022/05/18 13:13:58;;;;;;;1.58;1.17;;;;;;;;;;5074747;28;20040;-71
2022/05/18 13:16:38;;;;;;;2.17;1.10;;;;;;;;;;5074400;28;20051;-72
2022/05/18 13:19:13;;;;;;;0.77;0.77;;;;;;;;;;5092653;28;20043;-74
2022/05/18 13:21:46;;;;;;;1.27;1.17;;;;;;;;;;5092622;28;20028;-74
2022/05/18 13:24:19;;;;;;;3.40;0.73;;;;;;;;;;5092674;28;20081;-74
2022/05/18 13:26:46;;;;;;;2.95;0.60;;;;;;;;;;5092614;28;20036;-74
2022/05/18 13:29:17;;;;;;;2.15;0.50;;;;;;;;;;5092526;28;20143;-74
2022/05/18 13:31:53;;;;;;;0.60;0.60;;;;;;;;;;5091385;28;20110;-74
2022/05/18 13:34:21;;;;;;;1.35;0.43;;;;;;;;;;5093069;28;20060;-74
2022/05/18 13:36:47;;;;;;;8.63;3.58;;;;;;;;;;5093523;28;20077;-74
2022/05/18 13:39:18;;;;;;;1.63;1.52;;;;;;;;;;5093591;28;20116;-74
2022/05/18 13:41:46;;;;;;;0.63;0.60;;;;;;;;;;5093240;28;20036;-74
2022/05/18 13:44:12;;;;;;;2.75;0.60;;;;;;;;;;5093677;28;20055;-74
2022/05/18 13:46:37;;;;;;;1.35;0.50;;;;;;;;;;5093412;28;20051;-74
2022/05/18 13:49:08;;;;;;;1.17;0.60;;;;;;;;;;5093492;28;20012;-74
2022/05/18 13:51:36;;;;;;;0.40;0.40;;;;;;;;;;5092884;28;20405;-74
2022/05/18 13:54:04;;;;;;;0.82;0.60;;;;;;;;;;5093178;28;20057;-74
2022/05/18 13:56:42;;;;;;;0.63;0.63;;;;;;;;;;5077038;28;20038;-74
2022/05/18 13:59:16;;;;;;;0.70;0.70;;;;;;;;;;5059771;28;20032;-74
2022/05/18 14:01:45;;;;;;;0.63;0.50;;;;;;;;;;5094589;28;20028;-74
2022/05/18 14:04:20;;;;;;;0.60;0.57;;;;;;;;;;5094531;28;20024;-74
2022/05/18 14:06:48;;;;;;;1.38;0.85;;;;;;;;;;5077223;28;20047;-74
2022/05/18 14:09:14;;;;;;;0.43;0.43;;;;;;;;;;5096233;28;20016;-74
2022/05/18 14:11:39;;;;;;;5.68;0.70;;;;;;;;;;5096170;28;20484;-74
2022/05/18 14:14:05;;;;;;;2.23;0.57;;;;;;;;;;5096088;28;20099;-74
2022/05/18 14:16:36;;;;;;;0.40;0.40;;;;;;;;;;5095856;28;20322;-74
2022/05/18 14:19:03;;;;;;;0.40;0.40;;;;;;;;;;5095990;28;20024;-74
2022/05/18 14:21:29;;;;;;;0.93;0.50;;;;;;;;;;5095957;28;20012;-74
2022/05/18 14:24:02;;;;;;;0.40;0.40;;;;;;;;;;5095877;28;20051;-74
2022/05/18 14:26:48;;;;;;;1.02;0.50;;;;;;;;;;5095784;28;20036;-74
2022/05/18 14:29:17;;;;;;;7.15;4.25;;;;;;;;;;5078094;28;20036;-74
2022/05/18 14:31:46;;;;;;;2.40;1.30;;;;;;;;;;5095774;28;20032;-74
2022/05/18 14:34:12;;;;;;;1.00;0.57;;;;;;;;;;5095777;28;20110;-74
2022/05/18 14:36:49;;;;;;;0.60;0.60;;;;;;;;;;5095742;28;20111;-74
2022/05/18 14:39:16;;;;;;;1.70;0.65;;;;;;;;;;5095592;28;20462;-74
2022/05/18 14:41:44;;;;;;;0.50;0.50;;;;;;;;;;5095583;28;20020;-74
2022/05/18 14:44:11;;;;;;;0.55;0.55;;;;;;;;;;5095550;28;20028;-74
2022/05/18 14:46:44;;;;;;;0.55;0.55;;;;;;;;;;5095469;28;20076;-74
2022/05/18 14:49:12;;;;;;;0.52;0.52;;;;;;;;;;5095442;28;20032;-74
2022/05/18 14:51:43;;;;;;;2.97;0.63;;;;;;;;;;5095675;28;20046;-74
2022/05/18 14:54:23;;;;;;;3.45;2.72;;;;;;;;;;5095266;28;20042;-74
2022/05/18 14:56:52;;;;;;;2.22;1.38;;;;;;;;;;5095173;28;20051;-74
2022/05/18 14:59:19;;;;;;;0.80;0.77;;;;;;;;;;5095225;28;20012;-74
2022/05/18 15:02:05;;;;;;;0.57;0.57;;;;;;;;;;5095173;28;20036;-74
2022/05/18 15:04:40;;;;;;;1.13;0.70;;;;;;;;;;5094984;28;20024;-74
2022/05/18 15:07:09;;;;;;;1.42;0.70;;;;;;;;;;5094503;28;20064;-74
2022/05/18 15:09:36;;;;;;;1.20;0.65;;;;;;;;;;5095040;28;20030;-74
2022/05/18 15:12:06;;;;;;;0.82;0.65;;;;;;;;;;5094853;28;20418;-74
2022/05/18 15:14:35;;;;;;;1.67;0.80;;;;;;;;;;5094895;28;20028;-74
2022/05/18 15:17:01;;;;;;;1.48;0.50;;;;;;;;;;5094625;28;20059;-74
2022/05/18 15:19:32;;;;;;;0.60;0.60;;;;;;;;;;5094834;28;20028;-74
2022/05/18 15:22:21;;;;;;;15.43;1.70;;;;;;;;;;5094776;28;20151;-75
2022/05/18 15:24:48;;;;;;;3.35;0.90;;;;;;;;;;5094720;28;20474;-74
2022/05/18 15:27:26;;;;;;;11.60;7.30;;;;;;;;;;5094662;28;20020;-74
2022/05/18 15:29:59;;;;;;;1.73;0.70;;;;;;;;;;5094618;28;20044;-74
2022/05/18 15:32:31;;;;;;;0.75;0.45;;;;;;;;;;5094544;28;20040;-74
2022/05/18 15:35:01;;;;;;;0.63;0.60;;;;;;;;;;5094545;28;20055;-74
2022/05/18 15:37:28;;;;;;;3.97;0.63;;;;;;;;;;5094434;28;20020;-74
2022/05/18 15:39:53;;;;;;;1.98;0.43;;;;;;;;;;5094448;28;20069;-74
2022/05/18 15:42:20;;;;;;;0.95;0.70;;;;;;;;;;5094392;28;20016;-74
2022/05/18 15:44:46;;;;;;;0.65;0.65;;;;;;;;;;5094355;28;20483;-74
2022/05/18 15:47:13;;;;;;;0.63;0.57;;;;;;;;;;5094266;28;20103;-74
2022/05/18 15:49:48;;;;;;;1.77;0.82;;;;;;;;;;5094268;28;20030;-74
2022/05/18 15:52:15;;;;;;;2.83;0.63;;;;;;;;;;5094210;28;20529;-74
2022/05/18 15:54:44;;;;;;;1.08;0.80;;;;;;;;;;5094169;28;20103;-74
2022/05/18 15:57:11;;;;;;;0.57;0.57;;;;;;;;;;5094044;28;20024;-74
2022/05/18 15:59:37;;;;;;;0.75;0.70;;;;;;;;;;5094841;28;20017;-74
2022/05/18 16:02:02;;;;;;;0.70;0.50;;;;;;;;;;5095057;28;20101;-74
2022/05/18 16:04:28;;;;;;;0.75;0.75;;;;;;;;;;5095029;28;20016;-74
2022/05/18 16:06:53;;;;;;;0.65;0.65;;;;;;;;;;5095068;28;20028;-74
2022/05/18 16:09:22;;;;;;;0.68;0.65;;;;;;;;;;5094932;28;20023;-74
2022/05/18 16:11:48;;;;;;;1.67;1.02;;;;;;;;;;5095244;28;20032;-74